Sidney, NE (69162)

5:58 AM MDT on July 28, 2015 (GMT -0600)
Fort Sidney Rd | | Change Station
CLOSE
Current Station
Personal Weather Station
Location: Sidney, NE
Elevation: 4242 ft
Nearby Weather Stations

Elev 4242 ft 41.12 °N, 102.97 °W | Updated 2 minutes ago

Clear
Clear
55.9 °F
Feels Like 55.9 °F
N
8.3
Wind Variable Wind from NNW

Today
High -- | Low -- °F
--% Chance of Precip.
Yesterday
High -- | Low -- °F
Precip. -- in
5:43 AM 8:12 PM
Waxing Gibbous, 89% visible
Pressure 29.90 in
Visibility 10.0 miles
Clouds Clear
Dew Point 46 °F
Humidity 70%
Rainfall 0.00 in
Snow Depth Not available.
UV 0 out of 12
Pollen 6.70 out of 12
Air Quality Not available.
Flu Activity Not available.
METAR KSNY 281153Z AUTO 34009KT 10SM CLR 12/08 A3006 RMK AO2 SLP125 T01220083 10244 20122 53028

More Conditions Fewer Conditions

Pressure 29.90 in
Visibility 10.0 miles
Clouds Clear
Dew Point 46 °F
Humidity 70%
Rainfall 0.00 in
Snow Depth Not available.
UV 0 out of 12
Pollen 6.70 out of 12
Air Quality Not available.
Flu Activity Not available.
METAR KSNY 281153Z AUTO 34009KT 10SM CLR 12/08 A3006 RMK AO2 SLP125 T01220083 10244 20122 53028

More Conditions Fewer Conditions

10-Day Weather Forecast

×

Almanac

Astronomy

Jul. 28, 2015 Rise Set
Actual Time
Civil Twilight
Nautical Twilight
Astronomical Twilight
Moon
Length of Visible Light
Length of Day
Tomorrow will be .
, % of the Moon is Illuminated

Today's Extremes

State Highs State Lows

Community

WunderPhotos

Upload Photos

1,841,808 photos uploaded!

WunderBlogs® & News

Nearby

Air Quality

  Air Quality AQ Index Pollutant
Not available.

Snow Depth

Station Depth Elevation

Earthquake Activity

City Distance Mag. Time & Date
Minimum magnitude displayed is 2.5.

Coastal Water Temperatures

Place Temperature

Stations

Nearby Weather Stations

Station Location Temp. Windchill Dew Point Humidity Wind Precip. Elev Updated Type